sensor_id;sensor_type;location;lat;lon;timestamp;temperature;humidity
14140;DHT22;7150;53.514;9.988;2023-12-20T00:01:40;9.30;99.90
14140;DHT22;7150;53.514;9.988;2023-12-20T00:04:06;9.30;99.90
14140;DHT22;7150;53.514;9.988;2023-12-20T00:06:31;9.30;99.90
14140;DHT22;7150;53.514;9.988;2023-12-20T00:08:57;9.20;99.90
14140;DHT22;7150;53.514;9.988;2023-12-20T00:11:25;9.20;99.90
14140;DHT22;7150;53.514;9.988;2023-12-20T00:13:51;9.10;99.90
14140;DHT22;7150;53.514;9.988;2023-12-20T00:16:17;9.10;99.90
14140;DHT22;7150;53.514;9.988;2023-12-20T00:18:42;9.10;99.90
14140;DHT22;7150;53.514;9.988;2023-12-20T00:21:08;9.00;99.90
14140;DHT22;7150;53.514;9.988;2023-12-20T00:23:33;9.00;99.90
14140;DHT22;7150;53.514;9.988;2023-12-20T00:25:59;9.00;99.90
14140;DHT22;7150;53.514;9.988;2023-12-20T00:28:25;9.00;99.90
14140;DHT22;7150;53.514;9.988;2023-12-20T00:30:51;8.90;99.90
14140;DHT22;7150;53.514;9.988;2023-12-20T00:33:16;8.80;99.90
14140;DHT22;7150;53.514;9.988;2023-12-20T00:35:42;8.80;99.90
14140;DHT22;7150;53.514;9.988;2023-12-20T00:38:07;8.80;99.90
14140;DHT22;7150;53.514;9.988;2023-12-20T00:40:34;8.70;99.90
14140;DHT22;7150;53.514;9.988;2023-12-20T00:43:00;8.70;99.90
14140;DHT22;7150;53.514;9.988;2023-12-20T00:45:25;8.70;99.90
14140;DHT22;7150;53.514;9.988;2023-12-20T00:47:50;8.70;99.90
14140;DHT22;7150;53.514;9.988;2023-12-20T00:50:16;8.70;99.90
14140;DHT22;7150;53.514;9.988;2023-12-20T00:52:42;8.80;99.90
14140;DHT22;7150;53.514;9.988;2023-12-20T00:55:07;8.80;99.90
14140;DHT22;7150;53.514;9.988;2023-12-20T00:57:33;8.80;99.90
14140;DHT22;7150;53.514;9.988;2023-12-20T00:59:59;8.80;99.90
14140;DHT22;7150;53.514;9.988;2023-12-20T01:02:25;8.90;99.90
14140;DHT22;7150;53.514;9.988;2023-12-20T01:04:50;9.00;99.90
14140;DHT22;7150;53.514;9.988;2023-12-20T01:07:15;9.00;99.90
14140;DHT22;7150;53.514;9.988;2023-12-20T01:09:41;9.00;99.90
14140;DHT22;7150;53.514;9.988;2023-12-20T01:12:07;9.00;99.90
14140;DHT22;7150;53.514;9.988;2023-12-20T01:14:32;8.90;99.90
14140;DHT22;7150;53.514;9.988;2023-12-20T01:16:58;9.00;99.90
14140;DHT22;7150;53.514;9.988;2023-12-20T01:19:24;9.00;99.90
14140;DHT22;7150;53.514;9.988;2023-12-20T01:21:50;8.90;99.90
14140;DHT22;7150;53.514;9.988;2023-12-20T01:24:15;8.90;99.90
14140;DHT22;7150;53.514;9.988;2023-12-20T01:26:41;9.00;99.90
14140;DHT22;7150;53.514;9.988;2023-12-20T01:29:06;9.00;99.90
14140;DHT22;7150;53.514;9.988;2023-12-20T01:31:32;9.00;99.90
14140;DHT22;7150;53.514;9.988;2023-12-20T01:33:57;9.00;99.90
14140;DHT22;7150;53.514;9.988;2023-12-20T01:36:23;9.00;99.90
14140;DHT22;7150;53.514;9.988;2023-12-20T01:38:48;8.90;99.90
14140;DHT22;7150;53.514;9.988;2023-12-20T01:41:14;8.90;99.90
14140;DHT22;7150;53.514;9.988;2023-12-20T01:43:40;8.90;99.90
14140;DHT22;7150;53.514;9.988;2023-12-20T01:46:05;8.90;99.90
14140;DHT22;7150;53.514;9.988;2023-12-20T01:48:31;8.80;99.90
14140;DHT22;7150;53.514;9.988;2023-12-20T01:50:59;8.80;99.90
14140;DHT22;7150;53.514;9.988;2023-12-20T01:53:25;8.80;99.90
14140;DHT22;7150;53.514;9.988;2023-12-20T01:55:54;8.80;99.90
14140;DHT22;7150;53.514;9.988;2023-12-20T01:58:22;8.80;99.90
14140;DHT22;7150;53.514;9.988;2023-12-20T02:00:48;8.80;99.90
14140;DHT22;7150;53.514;9.988;2023-12-20T02:03:14;8.80;99.90
14140;DHT22;7150;53.514;9.988;2023-12-20T02:05:40;8.80;99.90
14140;DHT22;7150;53.514;9.988;2023-12-20T02:08:06;8.80;99.90
14140;DHT22;7150;53.514;9.988;2023-12-20T02:10:32;8.80;99.90
14140;DHT22;7150;53.514;9.988;2023-12-20T02:12:57;8.80;99.90
14140;DHT22;7150;53.514;9.988;2023-12-20T02:15:23;8.70;99.90
14140;DHT22;7150;53.514;9.988;2023-12-20T02:17:49;8.60;99.90
14140;DHT22;7150;53.514;9.988;2023-12-20T02:20:15;8.60;99.90
14140;DHT22;7150;53.514;9.988;2023-12-20T02:22:41;8.60;99.90
14140;DHT22;7150;53.514;9.988;2023-12-20T02:25:06;8.50;99.90
14140;DHT22;7150;53.514;9.988;2023-12-20T02:27:32;8.50;99.90
14140;DHT22;7150;53.514;9.988;2023-12-20T02:29:58;8.50;99.90
14140;DHT22;7150;53.514;9.988;2023-12-20T02:32:24;8.50;99.90
14140;DHT22;7150;53.514;9.988;2023-12-20T02:34:54;8.50;99.90
14140;DHT22;7150;53.514;9.988;2023-12-20T02:37:20;8.50;99.90
14140;DHT22;7150;53.514;9.988;2023-12-20T02:39:45;8.50;99.90
14140;DHT22;7150;53.514;9.988;2023-12-20T02:42:11;8.50;99.90
14140;DHT22;7150;53.514;9.988;2023-12-20T02:44:36;8.50;99.90
14140;DHT22;7150;53.514;9.988;2023-12-20T02:47:02;8.50;99.90
14140;DHT22;7150;53.514;9.988;2023-12-20T02:49:28;8.40;99.90
14140;DHT22;7150;53.514;9.988;2023-12-20T02:51:53;8.50;99.90
14140;DHT22;7150;53.514;9.988;2023-12-20T02:54:19;8.50;99.90
14140;DHT22;7150;53.514;9.988;2023-12-20T02:56:44;8.50;99.90
14140;DHT22;7150;53.514;9.988;2023-12-20T02:59:10;8.40;99.90
14140;DHT22;7150;53.514;9.988;2023-12-20T03:01:42;8.40;99.90
14140;DHT22;7150;53.514;9.988;2023-12-20T03:04:08;8.40;99.90
14140;DHT22;7150;53.514;9.988;2023-12-20T03:06:33;8.50;99.90
14140;DHT22;7150;53.514;9.988;2023-12-20T03:08:59;8.40;99.90
14140;DHT22;7150;53.514;9.988;2023-12-20T03:11:27;8.40;99.90
14140;DHT22;7150;53.514;9.988;2023-12-20T03:13:53;8.40;99.90
14140;DHT22;7150;53.514;9.988;2023-12-20T03:16:18;8.40;99.90
14140;DHT22;7150;53.514;9.988;2023-12-20T03:18:44;8.40;99.90
14140;DHT22;7150;53.514;9.988;2023-12-20T03:21:09;8.40;99.90
14140;DHT22;7150;53.514;9.988;2023-12-20T03:23:35;8.50;99.90
14140;DHT22;7150;53.514;9.988;2023-12-20T03:26:00;8.40;99.90
14140;DHT22;7150;53.514;9.988;2023-12-20T03:28:27;8.30;99.90
14140;DHT22;7150;53.514;9.988;2023-12-20T03:30:52;8.30;99.90
14140;DHT22;7150;53.514;9.988;2023-12-20T03:33:18;8.30;99.90
14140;DHT22;7150;53.514;9.988;2023-12-20T03:35:44;8.30;99.90
14140;DHT22;7150;53.514;9.988;2023-12-20T03:38:09;8.20;99.90
14140;DHT22;7150;53.514;9.988;2023-12-20T03:40:35;8.30;99.90
14140;DHT22;7150;53.514;9.988;2023-12-20T03:43:01;8.30;99.90
14140;DHT22;7150;53.514;9.988;2023-12-20T03:45:26;8.40;99.90
14140;DHT22;7150;53.514;9.988;2023-12-20T03:47:52;8.40;99.90
14140;DHT22;7150;53.514;9.988;2023-12-20T03:50:25;8.30;99.90
14140;DHT22;7150;53.514;9.988;2023-12-20T03:52:50;8.30;99.90
14140;DHT22;7150;53.514;9.988;2023-12-20T03:55:16;8.20;99.90
14140;DHT22;7150;53.514;9.988;2023-12-20T03:57:41;8.30;99.90
14140;DHT22;7150;53.514;9.988;2023-12-20T04:00:08;8.30;99.90
14140;DHT22;7150;53.514;9.988;2023-12-20T04:02:37;8.30;99.90
14140;DHT22;7150;53.514;9.988;2023-12-20T04:05:03;8.20;99.90
14140;DHT22;7150;53.514;9.988;2023-12-20T04:07:28;8.30;99.90
14140;DHT22;7150;53.514;9.988;2023-12-20T04:09:55;8.20;99.90
14140;DHT22;7150;53.514;9.988;2023-12-20T04:12:20;8.30;99.90
14140;DHT22;7150;53.514;9.988;2023-12-20T04:14:46;8.20;99.90
14140;DHT22;7150;53.514;9.988;2023-12-20T04:17:11;8.20;99.90
14140;DHT22;7150;53.514;9.988;2023-12-20T04:19:37;8.20;99.90
14140;DHT22;7150;53.514;9.988;2023-12-20T04:22:02;8.30;99.90
14140;DHT22;7150;53.514;9.988;2023-12-20T04:24:28;8.30;99.90
14140;DHT22;7150;53.514;9.988;2023-12-20T04:26:54;8.30;99.90
14140;DHT22;7150;53.514;9.988;2023-12-20T04:29:19;8.30;99.90
14140;DHT22;7150;53.514;9.988;2023-12-20T04:31:45;8.40;99.90
14140;DHT22;7150;53.514;9.988;2023-12-20T04:34:10;8.50;99.90
14140;DHT22;7150;53.514;9.988;2023-12-20T04:36:35;8.40;99.90
14140;DHT22;7150;53.514;9.988;2023-12-20T04:39:01;8.40;99.90
14140;DHT22;7150;53.514;9.988;2023-12-20T04:41:26;8.40;99.90
14140;DHT22;7150;53.514;9.988;2023-12-20T04:43:53;8.40;99.90
14140;DHT22;7150;53.514;9.988;2023-12-20T04:46:18;8.30;99.90
14140;DHT22;7150;53.514;9.988;2023-12-20T04:48:44;8.30;99.90
14140;DHT22;7150;53.514;9.988;2023-12-20T04:51:09;8.30;99.90
14140;DHT22;7150;53.514;9.988;2023-12-20T04:53:35;8.30;99.90
14140;DHT22;7150;53.514;9.988;2023-12-20T04:56:00;8.40;99.90
14140;DHT22;7150;53.514;9.988;2023-12-20T04:58:26;8.30;99.90
14140;DHT22;7150;53.514;9.988;2023-12-20T05:00:51;8.30;99.90
14140;DHT22;7150;53.514;9.988;2023-12-20T05:03:17;8.30;99.90
14140;DHT22;7150;53.514;9.988;2023-12-20T05:05:43;8.30;99.90
14140;DHT22;7150;53.514;9.988;2023-12-20T05:08:08;8.30;99.90
14140;DHT22;7150;53.514;9.988;2023-12-20T05:10:34;8.30;99.90
14140;DHT22;7150;53.514;9.988;2023-12-20T05:13:00;8.30;99.90
14140;DHT22;7150;53.514;9.988;2023-12-20T05:15:25;8.30;99.90
14140;DHT22;7150;53.514;9.988;2023-12-20T05:17:51;8.30;99.90
14140;DHT22;7150;53.514;9.988;2023-12-20T05:20:16;8.40;99.90
14140;DHT22;7150;53.514;9.988;2023-12-20T05:22:42;8.30;99.90
14140;DHT22;7150;53.514;9.988;2023-12-20T05:25:07;8.30;99.90
14140;DHT22;7150;53.514;9.988;2023-12-20T05:27:33;8.30;99.90
14140;DHT22;7150;53.514;9.988;2023-12-20T05:29:59;8.40;99.90
14140;DHT22;7150;53.514;9.988;2023-12-20T05:32:24;8.20;99.90
14140;DHT22;7150;53.514;9.988;2023-12-20T05:34:50;8.30;99.90
14140;DHT22;7150;53.514;9.988;2023-12-20T05:37:16;8.30;99.90
14140;DHT22;7150;53.514;9.988;2023-12-20T05:39:41;8.30;99.90
14140;DHT22;7150;53.514;9.988;2023-12-20T05:42:07;8.20;99.90
14140;DHT22;7150;53.514;9.988;2023-12-20T05:44:32;8.20;99.90
14140;DHT22;7150;53.514;9.988;2023-12-20T05:46:58;8.30;99.90
14140;DHT22;7150;53.514;9.988;2023-12-20T05:49:23;8.30;99.90
14140;DHT22;7150;53.514;9.988;2023-12-20T05:51:49;8.30;99.90
14140;DHT22;7150;53.514;9.988;2023-12-20T05:54:16;8.30;99.90
14140;DHT22;7150;53.514;9.988;2023-12-20T05:56:41;8.40;99.90
14140;DHT22;7150;53.514;9.988;2023-12-20T05:59:07;8.30;99.90
14140;DHT22;7150;53.514;9.988;2023-12-20T06:01:32;8.30;99.90
14140;DHT22;7150;53.514;9.988;2023-12-20T06:03:58;8.40;99.90
14140;DHT22;7150;53.514;9.988;2023-12-20T06:06:23;8.30;99.90
14140;DHT22;7150;53.514;9.988;2023-12-20T06:08:49;8.30;99.90
14140;DHT22;7150;53.514;9.988;2023-12-20T06:11:14;8.30;99.90
14140;DHT22;7150;53.514;9.988;2023-12-20T06:13:40;8.30;99.90
14140;DHT22;7150;53.514;9.988;2023-12-20T06:16:06;8.30;99.90
14140;DHT22;7150;53.514;9.988;2023-12-20T06:18:34;8.30;99.90
14140;DHT22;7150;53.514;9.988;2023-12-20T06:21:02;8.30;99.90
14140;DHT22;7150;53.514;9.988;2023-12-20T06:23:27;8.30;99.90
14140;DHT22;7150;53.514;9.988;2023-12-20T06:25:53;8.30;99.90
14140;DHT22;7150;53.514;9.988;2023-12-20T06:28:19;8.30;99.90
14140;DHT22;7150;53.514;9.988;2023-12-20T06:30:44;8.30;99.90
14140;DHT22;7150;53.514;9.988;2023-12-20T06:33:11;8.30;99.90
14140;DHT22;7150;53.514;9.988;2023-12-20T06:35:36;8.30;99.90
14140;DHT22;7150;53.514;9.988;2023-12-20T06:38:02;8.30;99.90
14140;DHT22;7150;53.514;9.988;2023-12-20T06:40:28;8.30;99.90
14140;DHT22;7150;53.514;9.988;2023-12-20T06:42:53;8.30;99.90
14140;DHT22;7150;53.514;9.988;2023-12-20T06:45:19;8.30;99.90
14140;DHT22;7150;53.514;9.988;2023-12-20T06:47:45;8.30;99.90
14140;DHT22;7150;53.514;9.988;2023-12-20T06:50:10;8.30;99.90
14140;DHT22;7150;53.514;9.988;2023-12-20T06:52:36;8.30;99.90
14140;DHT22;7150;53.514;9.988;2023-12-20T06:55:01;8.40;99.90
14140;DHT22;7150;53.514;9.988;2023-12-20T06:57:27;8.40;99.90
14140;DHT22;7150;53.514;9.988;2023-12-20T06:59:53;8.40;99.90
14140;DHT22;7150;53.514;9.988;2023-12-20T07:02:18;8.40;99.90
14140;DHT22;7150;53.514;9.988;2023-12-20T07:04:44;8.40;99.90
14140;DHT22;7150;53.514;9.988;2023-12-20T07:07:09;8.40;99.90
14140;DHT22;7150;53.514;9.988;2023-12-20T07:09:35;8.40;99.90
14140;DHT22;7150;53.514;9.988;2023-12-20T07:12:01;8.40;99.90
14140;DHT22;7150;53.514;9.988;2023-12-20T07:14:27;8.40;99.90
14140;DHT22;7150;53.514;9.988;2023-12-20T07:16:53;8.40;99.90
14140;DHT22;7150;53.514;9.988;2023-12-20T07:19:19;8.50;99.90
14140;DHT22;7150;53.514;9.988;2023-12-20T07:21:44;8.50;99.90
14140;DHT22;7150;53.514;9.988;2023-12-20T07:24:10;8.50;99.90
14140;DHT22;7150;53.514;9.988;2023-12-20T07:26:35;8.50;99.90
14140;DHT22;7150;53.514;9.988;2023-12-20T07:29:03;8.50;99.90
14140;DHT22;7150;53.514;9.988;2023-12-20T07:31:29;8.50;99.90
14140;DHT22;7150;53.514;9.988;2023-12-20T07:33:55;8.50;99.90
14140;DHT22;7150;53.514;9.988;2023-12-20T07:36:20;8.50;99.90
14140;DHT22;7150;53.514;9.988;2023-12-20T07:38:47;8.60;99.90
14140;DHT22;7150;53.514;9.988;2023-12-20T07:41:12;8.60;99.90
14140;DHT22;7150;53.514;9.988;2023-12-20T07:43:38;8.60;99.90
14140;DHT22;7150;53.514;9.988;2023-12-20T07:46:07;8.60;99.90
14140;DHT22;7150;53.514;9.988;2023-12-20T07:48:37;8.70;99.90
14140;DHT22;7150;53.514;9.988;2023-12-20T07:51:03;8.70;99.90
14140;DHT22;7150;53.514;9.988;2023-12-20T07:53:29;8.70;99.90
14140;DHT22;7150;53.514;9.988;2023-12-20T07:55:55;8.70;99.90
14140;DHT22;7150;53.514;9.988;2023-12-20T07:58:20;8.70;99.90
14140;DHT22;7150;53.514;9.988;2023-12-20T08:00:46;8.70;99.90
14140;DHT22;7150;53.514;9.988;2023-12-20T08:03:12;8.70;99.90
14140;DHT22;7150;53.514;9.988;2023-12-20T08:05:38;8.70;99.90
14140;DHT22;7150;53.514;9.988;2023-12-20T08:08:05;8.70;99.90
14140;DHT22;7150;53.514;9.988;2023-12-20T08:10:31;8.80;99.90
14140;DHT22;7150;53.514;9.988;2023-12-20T08:12:57;8.80;99.90
14140;DHT22;7150;53.514;9.988;2023-12-20T08:15:22;8.80;99.90
14140;DHT22;7150;53.514;9.988;2023-12-20T08:17:49;8.80;99.90
14140;DHT22;7150;53.514;9.988;2023-12-20T08:20:16;8.80;99.90
14140;DHT22;7150;53.514;9.988;2023-12-20T08:22:42;8.80;99.90
14140;DHT22;7150;53.514;9.988;2023-12-20T08:25:07;8.80;99.90
14140;DHT22;7150;53.514;9.988;2023-12-20T08:27:34;8.80;99.90
14140;DHT22;7150;53.514;9.988;2023-12-20T08:30:01;8.90;99.90
14140;DHT22;7150;53.514;9.988;2023-12-20T08:32:28;8.90;99.90
14140;DHT22;7150;53.514;9.988;2023-12-20T08:34:54;8.80;99.90
14140;DHT22;7150;53.514;9.988;2023-12-20T08:37:19;8.90;99.90
14140;DHT22;7150;53.514;9.988;2023-12-20T08:39:45;8.90;99.90
14140;DHT22;7150;53.514;9.988;2023-12-20T08:42:10;8.80;99.90
14140;DHT22;7150;53.514;9.988;2023-12-20T08:44:36;8.80;99.90
14140;DHT22;7150;53.514;9.988;2023-12-20T08:47:01;8.90;99.90
14140;DHT22;7150;53.514;9.988;2023-12-20T08:49:27;8.90;99.90
14140;DHT22;7150;53.514;9.988;2023-12-20T08:51:53;8.90;99.90
14140;DHT22;7150;53.514;9.988;2023-12-20T08:54:19;8.90;99.90
14140;DHT22;7150;53.514;9.988;2023-12-20T08:56:45;8.90;99.90
14140;DHT22;7150;53.514;9.988;2023-12-20T08:59:11;9.00;99.90
14140;DHT22;7150;53.514;9.988;2023-12-20T09:01:37;9.00;99.90
14140;DHT22;7150;53.514;9.988;2023-12-20T09:04:02;9.00;99.90
14140;DHT22;7150;53.514;9.988;2023-12-20T09:06:28;9.00;99.90
14140;DHT22;7150;53.514;9.988;2023-12-20T09:08:53;9.00;99.90
14140;DHT22;7150;53.514;9.988;2023-12-20T09:11:19;8.90;99.90
14140;DHT22;7150;53.514;9.988;2023-12-20T09:13:45;8.90;99.90
14140;DHT22;7150;53.514;9.988;2023-12-20T09:16:10;8.90;99.90
14140;DHT22;7150;53.514;9.988;2023-12-20T09:18:36;8.80;99.90
14140;DHT22;7150;53.514;9.988;2023-12-20T09:21:01;8.80;99.90
14140;DHT22;7150;53.514;9.988;2023-12-20T09:23:27;8.80;99.90
14140;DHT22;7150;53.514;9.988;2023-12-20T09:25:53;8.70;99.90
14140;DHT22;7150;53.514;9.988;2023-12-20T09:28:19;8.60;99.90
14140;DHT22;7150;53.514;9.988;2023-12-20T09:30:44;8.50;99.90
14140;DHT22;7150;53.514;9.988;2023-12-20T09:33:11;8.50;99.90
14140;DHT22;7150;53.514;9.988;2023-12-20T09:35:37;8.40;99.90
14140;DHT22;7150;53.514;9.988;2023-12-20T09:38:02;8.30;99.90
14140;DHT22;7150;53.514;9.988;2023-12-20T09:40:29;8.20;99.90
14140;DHT22;7150;53.514;9.988;2023-12-20T09:43:11;8.20;99.90
14140;DHT22;7150;53.514;9.988;2023-12-20T09:45:39;8.10;99.90
14140;DHT22;7150;53.514;9.988;2023-12-20T09:48:06;8.10;99.90
14140;DHT22;7150;53.514;9.988;2023-12-20T09:50:32;8.10;99.90
14140;DHT22;7150;53.514;9.988;2023-12-20T09:52:59;8.10;99.90
14140;DHT22;7150;53.514;9.988;2023-12-20T09:55:27;8.10;99.90
14140;DHT22;7150;53.514;9.988;2023-12-20T09:57:53;8.10;99.90
14140;DHT22;7150;53.514;9.988;2023-12-20T10:00:19;8.10;99.90
14140;DHT22;7150;53.514;9.988;2023-12-20T10:03:05;8.20;99.90
14140;DHT22;7150;53.514;9.988;2023-12-20T10:05:32;8.30;99.90
14140;DHT22;7150;53.514;9.988;2023-12-20T10:07:58;8.20;99.90
14140;DHT22;7150;53.514;9.988;2023-12-20T10:10:24;8.60;99.90
14140;DHT22;7150;53.514;9.988;2023-12-20T10:13:05;8.20;99.90
14140;DHT22;7150;53.514;9.988;2023-12-20T10:15:35;8.30;99.90
14140;DHT22;7150;53.514;9.988;2023-12-20T10:18:02;8.20;99.90
14140;DHT22;7150;53.514;9.988;2023-12-20T10:20:28;8.50;99.90
14140;DHT22;7150;53.514;9.988;2023-12-20T10:22:57;8.30;99.90
14140;DHT22;7150;53.514;9.988;2023-12-20T10:25:24;8.20;99.90
14140;DHT22;7150;53.514;9.988;2023-12-20T10:27:50;8.20;99.90
14140;DHT22;7150;53.514;9.988;2023-12-20T10:30:33;8.20;99.90
14140;DHT22;7150;53.514;9.988;2023-12-20T10:32:59;8.20;99.90
14140;DHT22;7150;53.514;9.988;2023-12-20T10:35:24;8.20;99.90
14140;DHT22;7150;53.514;9.988;2023-12-20T10:37:52;8.30;99.90
14140;DHT22;7150;53.514;9.988;2023-12-20T10:40:19;8.30;99.90
14140;DHT22;7150;53.514;9.988;2023-12-20T10:42:45;8.30;99.90
14140;DHT22;7150;53.514;9.988;2023-12-20T10:45:10;8.30;99.90
14140;DHT22;7150;53.514;9.988;2023-12-20T10:47:36;8.40;99.90
14140;DHT22;7150;53.514;9.988;2023-12-20T10:50:05;8.40;99.90
14140;DHT22;7150;53.514;9.988;2023-12-20T10:52:32;8.40;99.90
14140;DHT22;7150;53.514;9.988;2023-12-20T10:54:59;8.40;99.90
14140;DHT22;7150;53.514;9.988;2023-12-20T10:57:26;8.30;99.90
14140;DHT22;7150;53.514;9.988;2023-12-20T10:59:54;8.20;99.90
14140;DHT22;7150;53.514;9.988;2023-12-20T11:02:21;8.20;99.90
14140;DHT22;7150;53.514;9.988;2023-12-20T11:04:59;8.20;99.90
14140;DHT22;7150;53.514;9.988;2023-12-20T11:07:33;8.10;99.90
14140;DHT22;7150;53.514;9.988;2023-12-20T11:10:17;8.10;99.90
14140;DHT22;7150;53.514;9.988;2023-12-20T11:13:16;8.20;99.90
14140;DHT22;7150;53.514;9.988;2023-12-20T11:15:43;8.10;99.90
14140;DHT22;7150;53.514;9.988;2023-12-20T11:18:09;8.10;99.90
14140;DHT22;7150;53.514;9.988;2023-12-20T11:20:39;8.20;99.90
14140;DHT22;7150;53.514;9.988;2023-12-20T11:23:06;8.20;99.90
14140;DHT22;7150;53.514;9.988;2023-12-20T11:25:55;8.20;99.90
14140;DHT22;7150;53.514;9.988;2023-12-20T11:28:23;8.30;99.90
14140;DHT22;7150;53.514;9.988;2023-12-20T11:30:54;8.30;99.90
14140;DHT22;7150;53.514;9.988;2023-12-20T11:33:24;8.30;99.90
14140;DHT22;7150;53.514;9.988;2023-12-20T11:35:50;8.30;99.90
14140;DHT22;7150;53.514;9.988;2023-12-20T11:38:16;8.30;99.90
14140;DHT22;7150;53.514;9.988;2023-12-20T11:40:43;8.40;99.90
14140;DHT22;7150;53.514;9.988;2023-12-20T11:43:09;8.40;99.90
14140;DHT22;7150;53.514;9.988;2023-12-20T11:45:35;8.40;99.90
14140;DHT22;7150;53.514;9.988;2023-12-20T11:48:02;8.40;99.90
14140;DHT22;7150;53.514;9.988;2023-12-20T11:50:28;8.40;99.90
14140;DHT22;7150;53.514;9.988;2023-12-20T11:52:55;8.50;99.90
14140;DHT22;7150;53.514;9.988;2023-12-20T11:55:22;8.50;99.90
14140;DHT22;7150;53.514;9.988;2023-12-20T11:57:47;8.60;99.90
14140;DHT22;7150;53.514;9.988;2023-12-20T12:00:14;8.50;99.90
14140;DHT22;7150;53.514;9.988;2023-12-20T12:02:39;8.50;99.90
14140;DHT22;7150;53.514;9.988;2023-12-20T12:05:06;8.60;99.90
14140;DHT22;7150;53.514;9.988;2023-12-20T12:07:33;8.60;99.90
14140;DHT22;7150;53.514;9.988;2023-12-20T12:09:59;8.70;99.90
14140;DHT22;7150;53.514;9.988;2023-12-20T12:12:25;8.70;99.90
14140;DHT22;7150;53.514;9.988;2023-12-20T12:14:52;8.70;99.90
14140;DHT22;7150;53.514;9.988;2023-12-20T12:17:18;8.70;99.90
14140;DHT22;7150;53.514;9.988;2023-12-20T12:19:43;8.80;99.90
14140;DHT22;7150;53.514;9.988;2023-12-20T12:22:15;8.70;99.90
14140;DHT22;7150;53.514;9.988;2023-12-20T12:24:46;8.80;99.90
14140;DHT22;7150;53.514;9.988;2023-12-20T12:27:13;8.70;99.90
14140;DHT22;7150;53.514;9.988;2023-12-20T12:29:39;8.70;99.90
14140;DHT22;7150;53.514;9.988;2023-12-20T12:32:08;8.70;99.90
14140;DHT22;7150;53.514;9.988;2023-12-20T12:34:34;8.70;99.90
14140;DHT22;7150;53.514;9.988;2023-12-20T12:37:00;8.70;99.90
14140;DHT22;7150;53.514;9.988;2023-12-20T12:39:26;8.70;99.90
14140;DHT22;7150;53.514;9.988;2023-12-20T12:41:52;8.80;99.90
14140;DHT22;7150;53.514;9.988;2023-12-20T12:44:19;8.80;99.90
14140;DHT22;7150;53.514;9.988;2023-12-20T12:46:46;8.80;99.90
14140;DHT22;7150;53.514;9.988;2023-12-20T12:49:12;8.80;99.90
14140;DHT22;7150;53.514;9.988;2023-12-20T12:51:37;8.80;99.90
14140;DHT22;7150;53.514;9.988;2023-12-20T12:54:03;8.80;99.90
14140;DHT22;7150;53.514;9.988;2023-12-20T12:56:29;8.80;99.90
14140;DHT22;7150;53.514;9.988;2023-12-20T12:58:54;8.80;99.90
14140;DHT22;7150;53.514;9.988;2023-12-20T13:01:20;8.80;99.90
14140;DHT22;7150;53.514;9.988;2023-12-20T13:03:46;8.80;99.90
14140;DHT22;7150;53.514;9.988;2023-12-20T13:06:12;8.90;99.90
14140;DHT22;7150;53.514;9.988;2023-12-20T13:08:37;8.90;99.90
14140;DHT22;7150;53.514;9.988;2023-12-20T13:11:03;8.90;99.90
14140;DHT22;7150;53.514;9.988;2023-12-20T13:13:30;8.90;99.90
14140;DHT22;7150;53.514;9.988;2023-12-20T13:15:55;8.90;99.90
14140;DHT22;7150;53.514;9.988;2023-12-20T13:18:22;8.90;99.90
14140;DHT22;7150;53.514;9.988;2023-12-20T13:20:48;8.80;99.90
14140;DHT22;7150;53.514;9.988;2023-12-20T13:23:14;8.80;99.90
14140;DHT22;7150;53.514;9.988;2023-12-20T13:25:40;8.80;99.90
14140;DHT22;7150;53.514;9.988;2023-12-20T13:28:06;8.80;99.90
14140;DHT22;7150;53.514;9.988;2023-12-20T13:30:31;8.80;99.90
14140;DHT22;7150;53.514;9.988;2023-12-20T13:32:57;8.80;99.90
14140;DHT22;7150;53.514;9.988;2023-12-20T13:35:22;8.80;99.90
14140;DHT22;7150;53.514;9.988;2023-12-20T13:37:48;8.80;99.90
14140;DHT22;7150;53.514;9.988;2023-12-20T13:40:13;8.80;99.90
14140;DHT22;7150;53.514;9.988;2023-12-20T13:42:39;8.80;99.90
14140;DHT22;7150;53.514;9.988;2023-12-20T13:45:06;8.80;99.90
14140;DHT22;7150;53.514;9.988;2023-12-20T13:47:32;8.80;99.90
14140;DHT22;7150;53.514;9.988;2023-12-20T13:49:58;8.80;99.90
14140;DHT22;7150;53.514;9.988;2023-12-20T13:52:23;8.80;99.90
14140;DHT22;7150;53.514;9.988;2023-12-20T13:54:49;8.80;99.90
14140;DHT22;7150;53.514;9.988;2023-12-20T13:57:15;8.80;99.90
14140;DHT22;7150;53.514;9.988;2023-12-20T13:59:40;8.80;99.90
14140;DHT22;7150;53.514;9.988;2023-12-20T14:02:06;8.80;99.90
14140;DHT22;7150;53.514;9.988;2023-12-20T14:04:31;8.80;99.90
14140;DHT22;7150;53.514;9.988;2023-12-20T14:06:57;8.80;99.90
14140;DHT22;7150;53.514;9.988;2023-12-20T14:09:23;8.80;99.90
14140;DHT22;7150;53.514;9.988;2023-12-20T14:11:48;8.90;99.90
14140;DHT22;7150;53.514;9.988;2023-12-20T14:14:14;8.90;99.90
14140;DHT22;7150;53.514;9.988;2023-12-20T14:16:39;8.90;99.90
14140;DHT22;7150;53.514;9.988;2023-12-20T14:19:05;8.90;99.90
14140;DHT22;7150;53.514;9.988;2023-12-20T14:21:33;8.90;99.90
14140;DHT22;7150;53.514;9.988;2023-12-20T14:23:58;8.90;99.90
14140;DHT22;7150;53.514;9.988;2023-12-20T14:26:24;8.90;99.90
14140;DHT22;7150;53.514;9.988;2023-12-20T14:28:49;8.90;99.90
14140;DHT22;7150;53.514;9.988;2023-12-20T14:31:15;8.90;99.90
14140;DHT22;7150;53.514;9.988;2023-12-20T14:33:40;8.90;99.90
14140;DHT22;7150;53.514;9.988;2023-12-20T14:36:07;8.90;99.90
14140;DHT22;7150;53.514;9.988;2023-12-20T14:38:33;8.90;99.90
14140;DHT22;7150;53.514;9.988;2023-12-20T14:40:59;8.90;99.90
14140;DHT22;7150;53.514;9.988;2023-12-20T14:43:26;8.90;99.90
14140;DHT22;7150;53.514;9.988;2023-12-20T14:45:52;8.90;99.90
14140;DHT22;7150;53.514;9.988;2023-12-20T14:48:18;8.90;99.90
14140;DHT22;7150;53.514;9.988;2023-12-20T14:50:44;9.00;99.90
14140;DHT22;7150;53.514;9.988;2023-12-20T14:53:09;8.90;99.90
14140;DHT22;7150;53.514;9.988;2023-12-20T14:55:35;8.90;99.90
14140;DHT22;7150;53.514;9.988;2023-12-20T14:58:01;8.90;99.90
14140;DHT22;7150;53.514;9.988;2023-12-20T15:00:27;8.90;99.90
14140;DHT22;7150;53.514;9.988;2023-12-20T15:02:53;8.90;99.90
14140;DHT22;7150;53.514;9.988;2023-12-20T15:05:21;8.90;99.90
14140;DHT22;7150;53.514;9.988;2023-12-20T15:07:47;8.90;99.90
14140;DHT22;7150;53.514;9.988;2023-12-20T15:10:13;8.90;99.90
14140;DHT22;7150;53.514;9.988;2023-12-20T15:12:39;8.90;99.90
14140;DHT22;7150;53.514;9.988;2023-12-20T15:15:05;8.90;99.90
14140;DHT22;7150;53.514;9.988;2023-12-20T15:17:30;8.90;99.90
14140;DHT22;7150;53.514;9.988;2023-12-20T15:19:56;8.80;99.90
14140;DHT22;7150;53.514;9.988;2023-12-20T15:22:21;8.80;99.90
14140;DHT22;7150;53.514;9.988;2023-12-20T15:24:47;8.80;99.90
14140;DHT22;7150;53.514;9.988;2023-12-20T15:27:13;8.70;99.90
14140;DHT22;7150;53.514;9.988;2023-12-20T15:29:38;8.80;99.90
14140;DHT22;7150;53.514;9.988;2023-12-20T15:32:04;8.70;99.90
14140;DHT22;7150;53.514;9.988;2023-12-20T15:34:30;8.70;99.90
14140;DHT22;7150;53.514;9.988;2023-12-20T15:36:56;8.70;99.90
14140;DHT22;7150;53.514;9.988;2023-12-20T15:39:22;8.70;99.90
14140;DHT22;7150;53.514;9.988;2023-12-20T15:41:47;8.70;99.90
14140;DHT22;7150;53.514;9.988;2023-12-20T15:44:14;8.60;99.90
14140;DHT22;7150;53.514;9.988;2023-12-20T15:46:40;8.60;99.90
14140;DHT22;7150;53.514;9.988;2023-12-20T15:49:06;8.50;99.90
14140;DHT22;7150;53.514;9.988;2023-12-20T15:51:32;8.50;99.90
14140;DHT22;7150;53.514;9.988;2023-12-20T15:53:57;8.50;99.90
14140;DHT22;7150;53.514;9.988;2023-12-20T15:56:23;8.50;99.90